Estación Meteorológica Peña el Pijo (Robertgarden) [ 11/12/18 20:57:41 CET ]

Fecha Hora Presion(HPa) Temp (°C) Humedad % Rocio (°C) Viento ( m/s) Direccion Lluvia 1Hora(mm) Lluvia 24H(mm) LLuvia Total(mm)
2018-Jul-20 01:01:59 1011.100 19.4 37 4.2         269.36
2018-Jul-20 02:01:39 1010.400 17.9 39 3.7         269.36
2018-Jul-20 03:01:37 1010.200 16.9 43 4.2         269.36
2018-Jul-20 04:01:38 1010.000 15.8 46 4.1         269.36
2018-Jul-20 05:01:37 1009.700 14.9 48 4.0         269.36
2018-Jul-20 06:01:41 1009.700 13.4 52 3.7         269.36
2018-Jul-20 07:01:42 1009.500 12.1 57 3.8         269.36
2018-Jul-20 08:01:45 1009.500 12.2 58 4.2         269.36
2018-Jul-20 09:01:40 1009.300 14.6 59 6.7         269.36
2018-Jul-20 10:01:44 1010.100 21.6 44 8.8         269.36
2018-Jul-20 11:01:43 1009.200 30.3 25 7.8         269.36
2018-Jul-20 12:01:39 1009.300 33.3 21 7.9         269.36
2018-Jul-20 13:01:50 1008.900 34.7 20 8.5         269.36
2018-Jul-20 14:01:57 1008.300 35.1 17 5.8         269.36
2018-Jul-20 15:01:55 1008.100 35.9 14 3.5         269.36
2018-Jul-20 16:02:04 1008.200 35.8 12 1.4 0.5 NW     269.36
2018-Jul-20 17:01:37 1008.100 34.6 12 0.5         269.36
2018-Jul-20 18:01:33 1007.900 33.3 14 1.5 1.3 NW     269.36
2018-Jul-20 19:01:47 1008.100 31.8 13 -0.6         269.36
2018-Jul-20 20:01:45 1008.200 29.9 15 -0.3         269.36
2018-Jul-20 21:01:34 1008.400 26.0 20 1.3         269.36
2018-Jul-20 22:01:55 1008.700 22.2 26 1.6         269.36
2018-Jul-20 23:01:51 1009.700 19.8 32 2.5         269.36

Temperatura Máxima:35°    Temperatura Mínima:12°
Presión Máxima:1011.100 Hpa    Presión Mínima:1007.900 Hpa


Volver